sensor_id;sensor_type;location;lat;lon;timestamp;P1;durP1;ratioP1;P2;durP2;ratioP2
20629;SDS011;17386;43.846;25.950;2023-06-10T00:01:41;11.98;;;4.60;;
20629;SDS011;17386;43.846;25.950;2023-06-10T00:04:06;8.63;;;4.30;;
20629;SDS011;17386;43.846;25.950;2023-06-10T00:06:32;9.50;;;4.47;;
20629;SDS011;17386;43.846;25.950;2023-06-10T00:09:04;8.00;;;3.95;;
20629;SDS011;17386;43.846;25.950;2023-06-10T00:11:31;9.20;;;3.83;;
20629;SDS011;17386;43.846;25.950;2023-06-10T00:13:57;9.65;;;3.92;;
20629;SDS011;17386;43.846;25.950;2023-06-10T00:16:23;7.85;;;4.05;;
20629;SDS011;17386;43.846;25.950;2023-06-10T00:18:48;8.27;;;4.40;;
20629;SDS011;17386;43.846;25.950;2023-06-10T00:23:41;7.43;;;3.65;;
20629;SDS011;17386;43.846;25.950;2023-06-10T00:26:07;7.60;;;3.95;;
20629;SDS011;17386;43.846;25.950;2023-06-10T00:28:33;8.45;;;4.50;;
20629;SDS011;17386;43.846;25.950;2023-06-10T00:30:58;7.25;;;3.72;;
20629;SDS011;17386;43.846;25.950;2023-06-10T00:33:23;7.35;;;3.90;;
20629;SDS011;17386;43.846;25.950;2023-06-10T00:35:49;9.38;;;4.60;;
20629;SDS011;17386;43.846;25.950;2023-06-10T00:38:14;7.32;;;3.70;;
20629;SDS011;17386;43.846;25.950;2023-06-10T00:40:40;7.03;;;4.00;;
20629;SDS011;17386;43.846;25.950;2023-06-10T00:43:06;7.00;;;3.75;;
20629;SDS011;17386;43.846;25.950;2023-06-10T00:45:32;7.68;;;3.90;;
20629;SDS011;17386;43.846;25.950;2023-06-10T00:47:58;7.20;;;3.58;;
20629;SDS011;17386;43.846;25.950;2023-06-10T00:50:25;8.75;;;3.95;;
20629;SDS011;17386;43.846;25.950;2023-06-10T00:52:50;8.40;;;3.60;;
20629;SDS011;17386;43.846;25.950;2023-06-10T00:55:17;7.03;;;3.42;;
20629;SDS011;17386;43.846;25.950;2023-06-10T00:57:44;9.52;;;3.78;;
20629;SDS011;17386;43.846;25.950;2023-06-10T01:00:11;8.25;;;4.13;;
20629;SDS011;17386;43.846;25.950;2023-06-10T01:02:37;8.13;;;3.85;;
20629;SDS011;17386;43.846;25.950;2023-06-10T01:05:03;9.70;;;3.83;;
20629;SDS011;17386;43.846;25.950;2023-06-10T01:07:31;9.02;;;4.00;;
20629;SDS011;17386;43.846;25.950;2023-06-10T01:10:11;7.30;;;4.10;;
20629;SDS011;17386;43.846;25.950;2023-06-10T01:13:24;7.90;;;3.83;;
20629;SDS011;17386;43.846;25.950;2023-06-10T01:15:33;7.18;;;4.05;;
20629;SDS011;17386;43.846;25.950;2023-06-10T01:18:01;7.18;;;3.60;;
20629;SDS011;17386;43.846;25.950;2023-06-10T01:20:33;7.18;;;3.25;;
20629;SDS011;17386;43.846;25.950;2023-06-10T01:23:02;6.05;;;3.35;;
20629;SDS011;17386;43.846;25.950;2023-06-10T01:25:29;5.35;;;3.17;;
20629;SDS011;17386;43.846;25.950;2023-06-10T01:28:19;7.43;;;3.92;;
20629;SDS011;17386;43.846;25.950;2023-06-10T01:33:28;6.90;;;3.20;;
20629;SDS011;17386;43.846;25.950;2023-06-10T01:35:57;5.93;;;3.83;;
20629;SDS011;17386;43.846;25.950;2023-06-10T01:38:23;8.85;;;3.17;;
20629;SDS011;17386;43.846;25.950;2023-06-10T01:40:52;7.93;;;3.95;;
20629;SDS011;17386;43.846;25.950;2023-06-10T01:43:20;6.38;;;3.20;;
20629;SDS011;17386;43.846;25.950;2023-06-10T01:45:46;6.47;;;3.35;;
20629;SDS011;17386;43.846;25.950;2023-06-10T01:48:11;8.80;;;3.25;;
20629;SDS011;17386;43.846;25.950;2023-06-10T01:50:36;6.10;;;3.40;;
20629;SDS011;17386;43.846;25.950;2023-06-10T01:53:03;7.82;;;3.38;;
20629;SDS011;17386;43.846;25.950;2023-06-10T01:55:29;6.68;;;3.60;;
20629;SDS011;17386;43.846;25.950;2023-06-10T01:57:54;5.72;;;3.13;;
20629;SDS011;17386;43.846;25.950;2023-06-10T02:00:20;6.15;;;3.30;;
20629;SDS011;17386;43.846;25.950;2023-06-10T02:02:45;6.30;;;3.35;;
20629;SDS011;17386;43.846;25.950;2023-06-10T02:05:11;7.65;;;3.45;;
20629;SDS011;17386;43.846;25.950;2023-06-10T02:07:36;6.20;;;3.20;;
20629;SDS011;17386;43.846;25.950;2023-06-10T02:10:03;6.68;;;3.40;;
20629;SDS011;17386;43.846;25.950;2023-06-10T02:12:29;6.35;;;3.03;;
20629;SDS011;17386;43.846;25.950;2023-06-10T02:14:54;4.90;;;3.33;;
20629;SDS011;17386;43.846;25.950;2023-06-10T02:17:20;7.05;;;2.78;;
20629;SDS011;17386;43.846;25.950;2023-06-10T02:19:45;7.05;;;3.10;;
20629;SDS011;17386;43.846;25.950;2023-06-10T02:22:17;5.15;;;3.15;;
20629;SDS011;17386;43.846;25.950;2023-06-10T02:24:43;9.27;;;3.60;;
20629;SDS011;17386;43.846;25.950;2023-06-10T02:27:08;10.65;;;3.25;;
20629;SDS011;17386;43.846;25.950;2023-06-10T02:29:34;11.57;;;3.60;;
20629;SDS011;17386;43.846;25.950;2023-06-10T02:32:01;8.35;;;3.20;;
20629;SDS011;17386;43.846;25.950;2023-06-10T02:36:53;9.27;;;3.17;;
20629;SDS011;17386;43.846;25.950;2023-06-10T02:39:19;6.75;;;3.30;;
20629;SDS011;17386;43.846;25.950;2023-06-10T02:41:44;6.13;;;3.38;;
20629;SDS011;17386;43.846;25.950;2023-06-10T02:44:10;8.55;;;3.47;;
20629;SDS011;17386;43.846;25.950;2023-06-10T02:46:35;6.35;;;3.60;;
20629;SDS011;17386;43.846;25.950;2023-06-10T02:49:00;7.28;;;3.47;;
20629;SDS011;17386;43.846;25.950;2023-06-10T02:51:26;6.38;;;3.45;;
20629;SDS011;17386;43.846;25.950;2023-06-10T02:53:52;10.32;;;3.47;;
20629;SDS011;17386;43.846;25.950;2023-06-10T02:56:18;6.97;;;3.50;;
20629;SDS011;17386;43.846;25.950;2023-06-10T02:58:43;9.32;;;3.83;;
20629;SDS011;17386;43.846;25.950;2023-06-10T03:01:09;9.52;;;3.97;;
20629;SDS011;17386;43.846;25.950;2023-06-10T03:03:35;10.90;;;5.30;;
20629;SDS011;17386;43.846;25.950;2023-06-10T03:06:02;11.23;;;5.72;;
20629;SDS011;17386;43.846;25.950;2023-06-10T03:08:28;14.02;;;6.28;;
20629;SDS011;17386;43.846;25.950;2023-06-10T03:10:53;13.20;;;6.05;;
20629;SDS011;17386;43.846;25.950;2023-06-10T03:13:19;12.35;;;6.38;;
20629;SDS011;17386;43.846;25.950;2023-06-10T03:15:44;12.88;;;6.18;;
20629;SDS011;17386;43.846;25.950;2023-06-10T03:18:11;16.55;;;6.53;;
20629;SDS011;17386;43.846;25.950;2023-06-10T03:20:36;15.70;;;6.90;;
20629;SDS011;17386;43.846;25.950;2023-06-10T03:23:03;13.30;;;6.55;;
20629;SDS011;17386;43.846;25.950;2023-06-10T03:25:31;16.80;;;6.82;;
20629;SDS011;17386;43.846;25.950;2023-06-10T03:27:57;14.35;;;6.43;;
20629;SDS011;17386;43.846;25.950;2023-06-10T03:30:22;15.82;;;6.43;;
20629;SDS011;17386;43.846;25.950;2023-06-10T03:32:48;11.15;;;6.55;;
20629;SDS011;17386;43.846;25.950;2023-06-10T03:35:14;13.23;;;6.32;;
20629;SDS011;17386;43.846;25.950;2023-06-10T03:37:39;13.68;;;6.35;;
20629;SDS011;17386;43.846;25.950;2023-06-10T03:40:05;11.93;;;6.28;;
20629;SDS011;17386;43.846;25.950;2023-06-10T03:42:33;13.40;;;5.60;;
20629;SDS011;17386;43.846;25.950;2023-06-10T03:44:58;12.15;;;5.38;;
20629;SDS011;17386;43.846;25.950;2023-06-10T03:47:24;14.95;;;6.07;;
20629;SDS011;17386;43.846;25.950;2023-06-10T03:49:49;19.70;;;6.55;;
20629;SDS011;17386;43.846;25.950;2023-06-10T03:52:15;13.00;;;6.20;;
20629;SDS011;17386;43.846;25.950;2023-06-10T03:54:40;16.23;;;5.38;;
20629;SDS011;17386;43.846;25.950;2023-06-10T03:57:06;9.65;;;5.47;;
20629;SDS011;17386;43.846;25.950;2023-06-10T03:59:31;11.43;;;5.15;;
20629;SDS011;17386;43.846;25.950;2023-06-10T04:01:56;12.93;;;5.00;;
20629;SDS011;17386;43.846;25.950;2023-06-10T04:04:22;9.48;;;4.78;;
20629;SDS011;17386;43.846;25.950;2023-06-10T04:06:48;10.00;;;4.50;;
20629;SDS011;17386;43.846;25.950;2023-06-10T04:09:14;8.10;;;5.00;;
20629;SDS011;17386;43.846;25.950;2023-06-10T04:11:41;10.43;;;4.32;;
20629;SDS011;17386;43.846;25.950;2023-06-10T04:14:07;9.10;;;4.25;;
20629;SDS011;17386;43.846;25.950;2023-06-10T04:16:33;12.75;;;4.70;;
20629;SDS011;17386;43.846;25.950;2023-06-10T04:18:58;10.88;;;4.70;;
20629;SDS011;17386;43.846;25.950;2023-06-10T04:21:25;11.52;;;5.18;;
20629;SDS011;17386;43.846;25.950;2023-06-10T04:23:51;10.00;;;5.05;;
20629;SDS011;17386;43.846;25.950;2023-06-10T04:26:16;6.50;;;4.13;;
20629;SDS011;17386;43.846;25.950;2023-06-10T04:28:45;8.35;;;4.53;;
20629;SDS011;17386;43.846;25.950;2023-06-10T04:31:10;9.48;;;4.63;;
20629;SDS011;17386;43.846;25.950;2023-06-10T04:33:36;9.50;;;4.63;;
20629;SDS011;17386;43.846;25.950;2023-06-10T04:36:02;7.50;;;4.18;;
20629;SDS011;17386;43.846;25.950;2023-06-10T04:38:27;12.38;;;4.95;;
20629;SDS011;17386;43.846;25.950;2023-06-10T04:40:53;10.82;;;4.97;;
20629;SDS011;17386;43.846;25.950;2023-06-10T04:43:18;9.10;;;4.47;;
20629;SDS011;17386;43.846;25.950;2023-06-10T04:45:44;10.90;;;5.40;;
20629;SDS011;17386;43.846;25.950;2023-06-10T04:48:12;8.38;;;4.45;;
20629;SDS011;17386;43.846;25.950;2023-06-10T04:50:38;10.93;;;4.85;;
20629;SDS011;17386;43.846;25.950;2023-06-10T04:53:04;11.15;;;5.15;;
20629;SDS011;17386;43.846;25.950;2023-06-10T04:55:29;9.43;;;5.50;;
20629;SDS011;17386;43.846;25.950;2023-06-10T04:57:55;10.15;;;5.68;;
20629;SDS011;17386;43.846;25.950;2023-06-10T05:00:20;10.98;;;4.75;;
20629;SDS011;17386;43.846;25.950;2023-06-10T05:02:46;10.57;;;4.90;;
20629;SDS011;17386;43.846;25.950;2023-06-10T05:05:16;8.55;;;5.03;;
20629;SDS011;17386;43.846;25.950;2023-06-10T05:07:42;12.82;;;5.40;;
20629;SDS011;17386;43.846;25.950;2023-06-10T05:10:07;9.45;;;4.50;;
20629;SDS011;17386;43.846;25.950;2023-06-10T05:12:33;9.23;;;4.75;;
20629;SDS011;17386;43.846;25.950;2023-06-10T05:14:59;9.25;;;4.78;;
20629;SDS011;17386;43.846;25.950;2023-06-10T05:17:24;9.90;;;5.10;;
20629;SDS011;17386;43.846;25.950;2023-06-10T05:19:50;8.82;;;4.47;;
20629;SDS011;17386;43.846;25.950;2023-06-10T05:22:16;9.48;;;4.90;;
20629;SDS011;17386;43.846;25.950;2023-06-10T05:24:43;9.05;;;4.78;;
20629;SDS011;17386;43.846;25.950;2023-06-10T05:27:09;10.48;;;4.90;;
20629;SDS011;17386;43.846;25.950;2023-06-10T05:29:35;8.43;;;4.68;;
20629;SDS011;17386;43.846;25.950;2023-06-10T05:32:00;7.32;;;4.72;;
20629;SDS011;17386;43.846;25.950;2023-06-10T05:34:28;8.23;;;4.55;;
20629;SDS011;17386;43.846;25.950;2023-06-10T05:36:57;10.13;;;5.95;;
20629;SDS011;17386;43.846;25.950;2023-06-10T05:39:22;10.38;;;5.03;;
20629;SDS011;17386;43.846;25.950;2023-06-10T05:41:48;8.73;;;4.93;;
20629;SDS011;17386;43.846;25.950;2023-06-10T05:44:13;10.40;;;5.05;;
20629;SDS011;17386;43.846;25.950;2023-06-10T05:46:38;13.63;;;5.30;;
20629;SDS011;17386;43.846;25.950;2023-06-10T05:49:04;9.80;;;5.22;;
20629;SDS011;17386;43.846;25.950;2023-06-10T05:51:29;11.43;;;6.07;;
20629;SDS011;17386;43.846;25.950;2023-06-10T05:53:55;12.60;;;5.55;;
20629;SDS011;17386;43.846;25.950;2023-06-10T05:56:20;9.95;;;5.00;;
20629;SDS011;17386;43.846;25.950;2023-06-10T05:58:49;10.10;;;5.75;;
20629;SDS011;17386;43.846;25.950;2023-06-10T06:01:14;11.77;;;5.57;;
20629;SDS011;17386;43.846;25.950;2023-06-10T06:03:40;11.65;;;4.93;;
20629;SDS011;17386;43.846;25.950;2023-06-10T06:06:05;7.40;;;4.25;;
20629;SDS011;17386;43.846;25.950;2023-06-10T06:08:31;14.55;;;5.18;;
20629;SDS011;17386;43.846;25.950;2023-06-10T06:10:56;9.02;;;5.07;;
20629;SDS011;17386;43.846;25.950;2023-06-10T06:13:22;9.60;;;4.60;;
20629;SDS011;17386;43.846;25.950;2023-06-10T06:15:48;13.05;;;6.60;;
20629;SDS011;17386;43.846;25.950;2023-06-10T06:18:13;12.30;;;4.57;;
20629;SDS011;17386;43.846;25.950;2023-06-10T06:20:39;9.65;;;4.78;;
20629;SDS011;17386;43.846;25.950;2023-06-10T06:23:05;8.55;;;4.78;;
20629;SDS011;17386;43.846;25.950;2023-06-10T06:25:30;10.55;;;4.20;;
20629;SDS011;17386;43.846;25.950;2023-06-10T06:27:56;9.88;;;4.40;;
20629;SDS011;17386;43.846;25.950;2023-06-10T06:30:21;8.77;;;4.53;;
20629;SDS011;17386;43.846;25.950;2023-06-10T06:32:46;9.52;;;5.70;;
20629;SDS011;17386;43.846;25.950;2023-06-10T06:35:12;10.98;;;4.78;;
20629;SDS011;17386;43.846;25.950;2023-06-10T06:37:37;10.18;;;4.85;;
20629;SDS011;17386;43.846;25.950;2023-06-10T06:40:03;9.13;;;4.40;;
20629;SDS011;17386;43.846;25.950;2023-06-10T06:42:29;8.25;;;4.70;;
20629;SDS011;17386;43.846;25.950;2023-06-10T06:44:54;11.05;;;4.97;;
20629;SDS011;17386;43.846;25.950;2023-06-10T06:47:20;7.50;;;4.50;;
20629;SDS011;17386;43.846;25.950;2023-06-10T06:49:46;7.25;;;4.25;;
20629;SDS011;17386;43.846;25.950;2023-06-10T06:52:12;10.57;;;4.85;;
20629;SDS011;17386;43.846;25.950;2023-06-10T06:54:37;10.05;;;4.78;;
20629;SDS011;17386;43.846;25.950;2023-06-10T06:57:03;9.57;;;4.40;;
20629;SDS011;17386;43.846;25.950;2023-06-10T06:59:28;6.78;;;4.60;;
20629;SDS011;17386;43.846;25.950;2023-06-10T07:01:54;8.20;;;4.18;;
20629;SDS011;17386;43.846;25.950;2023-06-10T07:04:19;11.65;;;4.65;;
20629;SDS011;17386;43.846;25.950;2023-06-10T07:06:46;9.48;;;4.53;;
20629;SDS011;17386;43.846;25.950;2023-06-10T07:09:12;7.35;;;4.47;;
20629;SDS011;17386;43.846;25.950;2023-06-10T07:11:38;10.95;;;4.60;;
20629;SDS011;17386;43.846;25.950;2023-06-10T07:14:04;10.50;;;4.90;;
20629;SDS011;17386;43.846;25.950;2023-06-10T07:16:29;9.27;;;5.13;;
20629;SDS011;17386;43.846;25.950;2023-06-10T07:18:55;11.27;;;4.97;;
20629;SDS011;17386;43.846;25.950;2023-06-10T07:21:20;12.70;;;4.68;;
20629;SDS011;17386;43.846;25.950;2023-06-10T07:23:46;12.32;;;5.10;;
20629;SDS011;17386;43.846;25.950;2023-06-10T07:26:11;12.35;;;5.47;;
20629;SDS011;17386;43.846;25.950;2023-06-10T07:28:39;9.95;;;4.82;;
20629;SDS011;17386;43.846;25.950;2023-06-10T07:31:05;9.02;;;5.15;;
20629;SDS011;17386;43.846;25.950;2023-06-10T07:33:30;9.32;;;5.18;;
20629;SDS011;17386;43.846;25.950;2023-06-10T07:35:56;9.85;;;4.65;;
20629;SDS011;17386;43.846;25.950;2023-06-10T07:38:21;10.63;;;5.15;;
20629;SDS011;17386;43.846;25.950;2023-06-10T07:40:46;9.55;;;5.30;;
20629;SDS011;17386;43.846;25.950;2023-06-10T07:43:12;11.90;;;5.85;;
20629;SDS011;17386;43.846;25.950;2023-06-10T07:45:41;9.23;;;4.88;;
20629;SDS011;17386;43.846;25.950;2023-06-10T07:48:06;9.95;;;5.20;;
20629;SDS011;17386;43.846;25.950;2023-06-10T07:50:32;9.30;;;5.45;;
20629;SDS011;17386;43.846;25.950;2023-06-10T07:52:58;8.60;;;5.13;;
20629;SDS011;17386;43.846;25.950;2023-06-10T07:55:23;10.57;;;5.53;;
20629;SDS011;17386;43.846;25.950;2023-06-10T08:00:16;12.05;;;5.05;;
20629;SDS011;17386;43.846;25.950;2023-06-10T08:02:42;8.80;;;4.97;;
20629;SDS011;17386;43.846;25.950;2023-06-10T08:05:07;10.07;;;5.93;;
20629;SDS011;17386;43.846;25.950;2023-06-10T08:07:33;8.07;;;5.43;;
20629;SDS011;17386;43.846;25.950;2023-06-10T08:09:58;10.02;;;6.00;;
20629;SDS011;17386;43.846;25.950;2023-06-10T08:12:23;8.38;;;4.70;;
20629;SDS011;17386;43.846;25.950;2023-06-10T08:14:49;9.75;;;5.05;;
20629;SDS011;17386;43.846;25.950;2023-06-10T08:17:14;12.48;;;5.90;;
20629;SDS011;17386;43.846;25.950;2023-06-10T08:19:40;9.30;;;5.40;;
20629;SDS011;17386;43.846;25.950;2023-06-10T08:22:05;8.90;;;5.72;;
20629;SDS011;17386;43.846;25.950;2023-06-10T08:24:31;9.20;;;5.47;;
20629;SDS011;17386;43.846;25.950;2023-06-10T08:26:58;16.30;;;5.72;;
20629;SDS011;17386;43.846;25.950;2023-06-10T08:29:23;9.45;;;5.35;;
20629;SDS011;17386;43.846;25.950;2023-06-10T08:31:49;12.20;;;6.35;;
20629;SDS011;17386;43.846;25.950;2023-06-10T08:34:14;12.80;;;6.35;;
20629;SDS011;17386;43.846;25.950;2023-06-10T08:36:39;10.20;;;4.80;;
20629;SDS011;17386;43.846;25.950;2023-06-10T08:39:05;11.10;;;5.63;;
20629;SDS011;17386;43.846;25.950;2023-06-10T08:41:30;9.70;;;5.53;;
20629;SDS011;17386;43.846;25.950;2023-06-10T08:47:13;11.90;;;5.72;;
20629;SDS011;17386;43.846;25.950;2023-06-10T08:49:44;10.63;;;6.32;;
20629;SDS011;17386;43.846;25.950;2023-06-10T08:52:15;13.65;;;5.72;;
20629;SDS011;17386;43.846;25.950;2023-06-10T08:54:43;11.95;;;6.65;;
20629;SDS011;17386;43.846;25.950;2023-06-10T08:57:17;10.80;;;6.18;;
20629;SDS011;17386;43.846;25.950;2023-06-10T08:59:45;12.52;;;6.80;;
20629;SDS011;17386;43.846;25.950;2023-06-10T09:02:11;12.70;;;6.93;;
20629;SDS011;17386;43.846;25.950;2023-06-10T09:07:04;12.90;;;6.35;;
20629;SDS011;17386;43.846;25.950;2023-06-10T09:11:57;13.77;;;7.35;;
20629;SDS011;17386;43.846;25.950;2023-06-10T09:14:23;12.05;;;6.63;;
20629;SDS011;17386;43.846;25.950;2023-06-10T09:16:49;12.45;;;6.40;;
20629;SDS011;17386;43.846;25.950;2023-06-10T09:19:15;12.77;;;6.72;;
20629;SDS011;17386;43.846;25.950;2023-06-10T09:24:07;13.98;;;8.23;;
20629;SDS011;17386;43.846;25.950;2023-06-10T09:26:33;12.00;;;6.72;;
20629;SDS011;17386;43.846;25.950;2023-06-10T09:29:04;13.48;;;6.18;;
20629;SDS011;17386;43.846;25.950;2023-06-10T09:31:31;12.60;;;6.80;;
20629;SDS011;17386;43.846;25.950;2023-06-10T09:34:06;11.07;;;6.75;;
20629;SDS011;17386;43.846;25.950;2023-06-10T09:36:36;10.50;;;5.85;;
20629;SDS011;17386;43.846;25.950;2023-06-10T09:39:02;10.43;;;5.90;;
20629;SDS011;17386;43.846;25.950;2023-06-10T09:41:34;12.48;;;6.93;;
20629;SDS011;17386;43.846;25.950;2023-06-10T09:44:01;14.57;;;6.78;;
20629;SDS011;17386;43.846;25.950;2023-06-10T09:46:34;14.77;;;6.80;;
20629;SDS011;17386;43.846;25.950;2023-06-10T09:48:59;12.02;;;7.45;;
20629;SDS011;17386;43.846;25.950;2023-06-10T09:51:25;13.20;;;6.47;;
20629;SDS011;17386;43.846;25.950;2023-06-10T09:53:51;12.98;;;6.00;;
20629;SDS011;17386;43.846;25.950;2023-06-10T09:56:16;13.65;;;6.65;;
20629;SDS011;17386;43.846;25.950;2023-06-10T09:58:42;10.48;;;5.75;;
20629;SDS011;17386;43.846;25.950;2023-06-10T10:01:12;14.15;;;5.95;;
20629;SDS011;17386;43.846;25.950;2023-06-10T10:03:46;11.20;;;6.18;;
20629;SDS011;17386;43.846;25.950;2023-06-10T10:06:13;10.27;;;5.18;;
20629;SDS011;17386;43.846;25.950;2023-06-10T10:11:05;13.48;;;6.00;;
20629;SDS011;17386;43.846;25.950;2023-06-10T10:13:32;13.77;;;5.85;;
20629;SDS011;17386;43.846;25.950;2023-06-10T10:16:00;13.68;;;6.38;;
20629;SDS011;17386;43.846;25.950;2023-06-10T10:18:29;13.27;;;5.28;;
20629;SDS011;17386;43.846;25.950;2023-06-10T10:23:26;8.88;;;4.93;;
20629;SDS011;17386;43.846;25.950;2023-06-10T10:25:57;10.75;;;6.40;;
20629;SDS011;17386;43.846;25.950;2023-06-10T10:28:25;9.77;;;5.57;;
20629;SDS011;17386;43.846;25.950;2023-06-10T10:30:59;12.75;;;4.32;;
20629;SDS011;17386;43.846;25.950;2023-06-10T10:33:33;9.63;;;4.50;;
20629;SDS011;17386;43.846;25.950;2023-06-10T10:36:07;5.55;;;3.60;;
20629;SDS011;17386;43.846;25.950;2023-06-10T10:38:33;6.55;;;3.50;;
20629;SDS011;17386;43.846;25.950;2023-06-10T10:41:00;8.23;;;3.55;;
20629;SDS011;17386;43.846;25.950;2023-06-10T10:43:27;7.75;;;3.20;;
20629;SDS011;17386;43.846;25.950;2023-06-10T10:46:00;6.13;;;3.92;;
20629;SDS011;17386;43.846;25.950;2023-06-10T10:48:26;7.90;;;4.53;;
20629;SDS011;17386;43.846;25.950;2023-06-10T10:50:58;9.10;;;4.10;;
20629;SDS011;17386;43.846;25.950;2023-06-10T10:53:24;6.80;;;3.92;;
20629;SDS011;17386;43.846;25.950;2023-06-10T10:56:00;9.30;;;3.65;;
20629;SDS011;17386;43.846;25.950;2023-06-10T10:58:29;6.25;;;3.72;;
20629;SDS011;17386;43.846;25.950;2023-06-10T11:00:55;8.43;;;4.65;;
20629;SDS011;17386;43.846;25.950;2023-06-10T11:03:20;8.73;;;3.70;;
20629;SDS011;17386;43.846;25.950;2023-06-10T11:05:46;9.15;;;5.03;;
20629;SDS011;17386;43.846;25.950;2023-06-10T11:08:49;10.10;;;3.90;;
20629;SDS011;17386;43.846;25.950;2023-06-10T11:11:24;8.75;;;3.33;;
20629;SDS011;17386;43.846;25.950;2023-06-10T11:13:58;16.25;;;8.23;;
20629;SDS011;17386;43.846;25.950;2023-06-10T11:16:27;8.38;;;3.88;;
20629;SDS011;17386;43.846;25.950;2023-06-10T11:18:53;7.97;;;3.22;;
20629;SDS011;17386;43.846;25.950;2023-06-10T11:21:19;8.10;;;3.70;;
20629;SDS011;17386;43.846;25.950;2023-06-10T11:23:45;6.35;;;3.53;;
20629;SDS011;17386;43.846;25.950;2023-06-10T11:28:40;9.80;;;3.70;;
20629;SDS011;17386;43.846;25.950;2023-06-10T11:31:30;5.65;;;3.53;;
20629;SDS011;17386;43.846;25.950;2023-06-10T11:33:58;7.80;;;3.38;;
20629;SDS011;17386;43.846;25.950;2023-06-10T11:36:31;5.75;;;3.55;;
20629;SDS011;17386;43.846;25.950;2023-06-10T11:39:05;6.25;;;3.38;;
20629;SDS011;17386;43.846;25.950;2023-06-10T11:44:02;12.18;;;7.03;;
20629;SDS011;17386;43.846;25.950;2023-06-10T11:46:33;9.32;;;3.65;;
20629;SDS011;17386;43.846;25.950;2023-06-10T11:48:58;10.23;;;3.85;;
20629;SDS011;17386;43.846;25.950;2023-06-10T11:51:25;11.13;;;3.50;;
20629;SDS011;17386;43.846;25.950;2023-06-10T11:53:52;9.93;;;4.20;;
20629;SDS011;17386;43.846;25.950;2023-06-10T11:56:25;8.68;;;3.58;;
20629;SDS011;17386;43.846;25.950;2023-06-10T11:59:13;7.78;;;4.10;;
20629;SDS011;17386;43.846;25.950;2023-06-10T12:01:38;12.32;;;4.35;;
20629;SDS011;17386;43.846;25.950;2023-06-10T12:04:11;9.18;;;4.07;;
20629;SDS011;17386;43.846;25.950;2023-06-10T12:06:42;11.10;;;3.88;;
20629;SDS011;17386;43.846;25.950;2023-06-10T12:11:42;9.65;;;3.72;;
20629;SDS011;17386;43.846;25.950;2023-06-10T12:14:09;12.32;;;4.10;;
20629;SDS011;17386;43.846;25.950;2023-06-10T12:16:34;7.30;;;3.65;;
20629;SDS011;17386;43.846;25.950;2023-06-10T12:19:04;7.03;;;3.97;;
20629;SDS011;17386;43.846;25.950;2023-06-10T12:21:32;11.80;;;4.60;;
20629;SDS011;17386;43.846;25.950;2023-06-10T12:24:04;11.90;;;4.28;;
20629;SDS011;17386;43.846;25.950;2023-06-10T12:26:36;6.80;;;4.43;;
20629;SDS011;17386;43.846;25.950;2023-06-10T12:29:23;8.82;;;4.57;;
20629;SDS011;17386;43.846;25.950;2023-06-10T12:32:00;9.32;;;5.07;;
20629;SDS011;17386;43.846;25.950;2023-06-10T12:34:34;9.75;;;5.03;;
20629;SDS011;17386;43.846;25.950;2023-06-10T12:37:02;10.55;;;5.68;;
20629;SDS011;17386;43.846;25.950;2023-06-10T12:39:29;10.82;;;5.68;;
20629;SDS011;17386;43.846;25.950;2023-06-10T12:41:58;9.38;;;5.90;;
20629;SDS011;17386;43.846;25.950;2023-06-10T12:44:31;9.85;;;5.97;;
20629;SDS011;17386;43.846;25.950;2023-06-10T12:47:00;10.45;;;5.47;;
20629;SDS011;17386;43.846;25.950;2023-06-10T12:49:31;9.32;;;5.30;;
20629;SDS011;17386;43.846;25.950;2023-06-10T12:51:57;9.20;;;4.70;;
20629;SDS011;17386;43.846;25.950;2023-06-10T12:54:22;10.48;;;5.07;;
20629;SDS011;17386;43.846;25.950;2023-06-10T12:56:50;9.27;;;4.97;;
20629;SDS011;17386;43.846;25.950;2023-06-10T12:59:15;11.88;;;5.07;;
20629;SDS011;17386;43.846;25.950;2023-06-10T13:01:41;9.15;;;5.53;;
20629;SDS011;17386;43.846;25.950;2023-06-10T13:04:06;11.68;;;5.13;;
20629;SDS011;17386;43.846;25.950;2023-06-10T13:06:32;10.13;;;4.82;;
20629;SDS011;17386;43.846;25.950;2023-06-10T13:09:01;13.20;;;5.60;;
20629;SDS011;17386;43.846;25.950;2023-06-10T13:11:27;11.52;;;5.05;;
20629;SDS011;17386;43.846;25.950;2023-06-10T13:13:53;11.60;;;4.75;;
20629;SDS011;17386;43.846;25.950;2023-06-10T13:16:18;9.93;;;5.47;;
20629;SDS011;17386;43.846;25.950;2023-06-10T13:18:44;15.32;;;10.45;;
20629;SDS011;17386;43.846;25.950;2023-06-10T13:21:09;9.23;;;5.43;;
20629;SDS011;17386;43.846;25.950;2023-06-10T13:23:34;9.70;;;5.47;;
20629;SDS011;17386;43.846;25.950;2023-06-10T13:26:00;10.68;;;5.22;;
20629;SDS011;17386;43.846;25.950;2023-06-10T13:28:28;13.27;;;4.35;;
20629;SDS011;17386;43.846;25.950;2023-06-10T13:30:53;6.97;;;4.07;;
20629;SDS011;17386;43.846;25.950;2023-06-10T13:33:18;9.10;;;4.53;;
20629;SDS011;17386;43.846;25.950;2023-06-10T13:35:44;11.45;;;5.30;;
20629;SDS011;17386;43.846;25.950;2023-06-10T13:38:09;10.05;;;4.85;;
20629;SDS011;17386;43.846;25.950;2023-06-10T13:40:35;10.07;;;5.25;;
20629;SDS011;17386;43.846;25.950;2023-06-10T13:43:00;13.23;;;5.43;;
20629;SDS011;17386;43.846;25.950;2023-06-10T13:45:26;10.27;;;4.65;;
20629;SDS011;17386;43.846;25.950;2023-06-10T13:47:53;9.82;;;5.07;;
20629;SDS011;17386;43.846;25.950;2023-06-10T13:50:18;12.88;;;4.63;;
20629;SDS011;17386;43.846;25.950;2023-06-10T13:52:43;7.88;;;4.70;;
20629;SDS011;17386;43.846;25.950;2023-06-10T13:55:09;10.30;;;5.70;;
20629;SDS011;17386;43.846;25.950;2023-06-10T13:57:34;9.48;;;4.78;;
20629;SDS011;17386;43.846;25.950;2023-06-10T14:00:00;8.20;;;4.72;;
20629;SDS011;17386;43.846;25.950;2023-06-10T14:02:25;8.80;;;4.80;;
20629;SDS011;17386;43.846;25.950;2023-06-10T14:04:51;6.40;;;4.32;;
20629;SDS011;17386;43.846;25.950;2023-06-10T14:07:16;10.88;;;4.38;;
20629;SDS011;17386;43.846;25.950;2023-06-10T14:09:42;7.80;;;4.45;;
20629;SDS011;17386;43.846;25.950;2023-06-10T14:12:07;9.45;;;4.85;;
20629;SDS011;17386;43.846;25.950;2023-06-10T14:14:34;11.15;;;4.88;;
20629;SDS011;17386;43.846;25.950;2023-06-10T14:16:59;9.90;;;4.60;;
20629;SDS011;17386;43.846;25.950;2023-06-10T14:19:25;10.00;;;4.97;;
20629;SDS011;17386;43.846;25.950;2023-06-10T14:21:50;14.13;;;4.90;;
20629;SDS011;17386;43.846;25.950;2023-06-10T14:24:15;10.60;;;5.50;;
20629;SDS011;17386;43.846;25.950;2023-06-10T14:26:41;9.63;;;4.70;;
20629;SDS011;17386;43.846;25.950;2023-06-10T14:29:06;7.15;;;4.68;;
20629;SDS011;17386;43.846;25.950;2023-06-10T14:31:32;9.65;;;4.80;;
20629;SDS011;17386;43.846;25.950;2023-06-10T14:33:57;8.80;;;4.45;;
20629;SDS011;17386;43.846;25.950;2023-06-10T14:36:23;16.23;;;6.05;;
20629;SDS011;17386;43.846;25.950;2023-06-10T14:38:48;10.85;;;5.18;;
20629;SDS011;17386;43.846;25.950;2023-06-10T14:41:14;7.60;;;4.75;;
20629;SDS011;17386;43.846;25.950;2023-06-10T14:43:39;9.68;;;5.25;;
20629;SDS011;17386;43.846;25.950;2023-06-10T14:46:04;12.05;;;6.03;;
20629;SDS011;17386;43.846;25.950;2023-06-10T14:48:30;12.93;;;6.28;;
20629;SDS011;17386;43.846;25.950;2023-06-10T14:50:55;12.88;;;5.18;;
20629;SDS011;17386;43.846;25.950;2023-06-10T14:53:21;13.43;;;4.88;;
20629;SDS011;17386;43.846;25.950;2023-06-10T14:55:46;11.20;;;5.90;;
20629;SDS011;17386;43.846;25.950;2023-06-10T14:58:11;13.50;;;5.18;;
20629;SDS011;17386;43.846;25.950;2023-06-10T15:00:37;10.98;;;5.65;;